LFOH

Le Havre Octeville Airport

Airport
ICAO code
LFOH
IATA Code
LEH
Summary
ICAO Region
EUR
ICAO Territory
Location

, Haute-Normandie

Serving
Le Havre
Elevation
313 ft
Coordinates
49° 32' 2" N , 0° 5' 17" E
Metar
Observation
LFOH 012300Z AUTO 09007KT 5000 BR NSC 02/01 Q1026
Station
La Heve
Date/Time
2022-12-01 23:00:00
Wind direction
90°
Wind speed
07 kts
Lowest cloud amount
nil significant cloud
Temperature
2°C
Dew point
1°C
Humidity
93%
QNH
1026 hPa
Weather condition
n/a

Runways

Designator Length Width Surface Rops
5/23 2300 40 ASP No/No

Airport map

Aerial View

SKYbrary Partners:

Safety knowledge contributed by: